Darstellungsparameter: Aktuell verwendete Einstellungen:
Skalierung der Graphiken ... ?
xyx+y,   Skalierungsfaktor:      Skalierung: Modus: x, Faktor: 1
Darstellungszeitraum ... ?
Vom - - bis: - -   Zeitraum: 04.09.2014 - 05.09.2014
Min/Max/Avg-Anzeige ... ?
Zeige MMA aktuell
Zeige MMA Monat
Zeige MMA alles
Zeige --A aktuell
Zeige --A Monat
Zeige --A alles
Keine MMA-Anzeige
MMA:
Keine MMA-Graphiken
MMA-Basis: 04.09.2014 - 05.09.2014
Quicknavigation für Darstellung... ?
Tage:      1T, 2T, 3T, 5T -1T -2T -3T -5T +1T +2T +3T +5T
Wochen: 1W, 2W, 3W -1W -2W -3W +1W +2W +3W
Monate: 1M, 3M, 6M -1M -3M -6M +1M +3M +6M
Jahre:    1J, 3J, 5J, 10J -1J -3J -5J -10J +1J +3J +5J +10J
Nutze für die Darstellung ... ?
Originaldaten oder Mittelwerte auf ...
Stundenbasis Tagesbasis Wochenbasis
Monatsbasis Jahresbasis      Datenbasis: Original-Daten
Darstellen als:
Statistik (Auto) Statistik J:M      Darstellung:
Zur Graphik,    zurück zur Übersicht aller Sensoren.
 
Tabellarische Datenbersicht: ?
 
Sensor: Nr:Datum:Temp:Feuchte:Taupunkt:
Aussen-T/F 1 04-09-2014 00:00:00 15.1 C 93 % 13.98 C
2 04-09-2014 00:05:00 15.1 C 94 % 14.14 C
3 04-09-2014 00:10:00 15.1 C 94 % 14.14 C
4 04-09-2014 00:15:00 15.1 C 94 % 14.14 C
5 04-09-2014 00:20:00 15.1 C 94 % 14.14 C
6 04-09-2014 00:25:00 15 C 93 % 13.88 C
7 04-09-2014 00:30:00 15 C 93 % 13.88 C
8 04-09-2014 00:35:00 15 C 93 % 13.88 C
9 04-09-2014 00:40:00 14.9 C 93 % 13.78 C
10 04-09-2014 00:45:00 14.9 C 93 % 13.78 C
11 04-09-2014 00:50:00 14.8 C 92 % 13.51 C
12 04-09-2014 00:55:00 14.7 C 92 % 13.41 C
13 04-09-2014 01:00:00 14.7 C 92 % 13.41 C
14 04-09-2014 01:05:00 14.7 C 93 % 13.58 C
15 04-09-2014 01:10:00 14.6 C 93 % 13.48 C
16 04-09-2014 01:15:00 14.6 C 92 % 13.32 C
17 04-09-2014 01:20:00 14.6 C 93 % 13.48 C
18 04-09-2014 01:25:00 14.5 C 93 % 13.38 C
19 04-09-2014 01:30:00 14.5 C 93 % 13.38 C
20 04-09-2014 01:35:00 14.5 C 93 % 13.38 C
21 04-09-2014 01:40:00 14.6 C 93 % 13.48 C
22 04-09-2014 01:45:00 14.5 C 93 % 13.38 C
23 04-09-2014 01:50:00 14.5 C 93 % 13.38 C
24 04-09-2014 01:55:00 14.5 C 94 % 13.55 C
25 04-09-2014 02:00:00 14.5 C 94 % 13.55 C
Sensor: Nr:Datum:Temp:Feuchte:Taupunkt:
Aussen-T/F 26 04-09-2014 02:05:00 14.4 C 94 % 13.45 C
27 04-09-2014 02:10:00 14.4 C 94 % 13.45 C
28 04-09-2014 02:15:00 14.4 C 94 % 13.45 C
29 04-09-2014 02:20:00 14.4 C 94 % 13.45 C
30 04-09-2014 02:25:00 14.4 C 94 % 13.45 C
31 04-09-2014 02:30:00 14.3 C 94 % 13.35 C
32 04-09-2014 02:35:00 14.3 C 94 % 13.35 C
33 04-09-2014 02:40:00 14.2 C 94 % 13.25 C
34 04-09-2014 02:45:00 14.1 C 94 % 13.15 C
35 04-09-2014 02:50:00 13.9 C 93 % 12.79 C
36 04-09-2014 02:55:00 13.8 C 94 % 12.85 C
37 04-09-2014 03:00:00 13.7 C 94 % 12.75 C
38 04-09-2014 03:05:00 13.7 C 94 % 12.75 C
39 04-09-2014 03:10:00 13.6 C 94 % 12.65 C
40 04-09-2014 03:15:00 13.6 C 94 % 12.65 C
41 04-09-2014 03:20:00 13.4 C 94 % 12.45 C
42 04-09-2014 03:25:00 13.4 C 94 % 12.45 C
43 04-09-2014 03:30:00 13.4 C 95 % 12.62 C
44 04-09-2014 03:35:00 13.4 C 95 % 12.62 C
45 04-09-2014 03:40:00 13.3 C 95 % 12.52 C
46 04-09-2014 03:45:00 13.3 C 95 % 12.52 C
47 04-09-2014 03:50:00 13.3 C 95 % 12.52 C
48 04-09-2014 03:55:00 13.3 C 95 % 12.52 C
49 04-09-2014 04:00:00 13.3 C 96 % 12.68 C
50 04-09-2014 04:05:00 13.3 C 96 % 12.68 C
Sensor: Nr:Datum:Temp:Feuchte:Taupunkt:
Aussen-T/F 51 04-09-2014 04:10:00 13.3 C 96 % 12.68 C
52 04-09-2014 04:15:00 13.3 C 96 % 12.68 C
53 04-09-2014 04:20:00 13.3 C 96 % 12.68 C
54 04-09-2014 04:25:00 13.4 C 96 % 12.78 C
55 04-09-2014 04:30:00 13.3 C 96 % 12.68 C
56 04-09-2014 04:35:00 13.3 C 96 % 12.68 C
57 04-09-2014 04:40:00 13.4 C 96 % 12.78 C
58 04-09-2014 04:45:00 13.4 C 96 % 12.78 C
59 04-09-2014 04:50:00 13.4 C 96 % 12.78 C
60 04-09-2014 04:55:00 13.4 C 96 % 12.78 C
61 04-09-2014 05:00:00 13.5 C 96 % 12.87 C
62 04-09-2014 05:05:00 13.6 C 96 % 12.97 C
63 04-09-2014 05:10:00 13.6 C 96 % 12.97 C
64 04-09-2014 05:15:00 13.6 C 96 % 12.97 C
65 04-09-2014 05:20:00 13.6 C 96 % 12.97 C
66 04-09-2014 05:25:00 13.6 C 96 % 12.97 C
67 04-09-2014 05:30:00 13.6 C 96 % 12.97 C
68 04-09-2014 05:35:00 13.6 C 96 % 12.97 C
69 04-09-2014 05:40:00 13.7 C 96 % 13.07 C
70 04-09-2014 05:45:00 13.7 C 96 % 13.07 C
71 04-09-2014 05:50:00 13.8 C 97 % 13.33 C
72 04-09-2014 05:55:00 13.8 C 97 % 13.33 C
73 04-09-2014 06:00:00 13.8 C 96 % 13.17 C
74 04-09-2014 06:05:00 13.8 C 96 % 13.17 C
75 04-09-2014 06:10:00 13.8 C 96 % 13.17 C
Sensor: Nr:Datum:Temp:Feuchte:Taupunkt:
Aussen-T/F 76 04-09-2014 06:15:00 13.7 C 96 % 13.07 C
77 04-09-2014 06:20:00 13.8 C 96 % 13.17 C
78 04-09-2014 06:25:00 13.8 C 96 % 13.17 C
79 04-09-2014 06:30:00 13.9 C 96 % 13.27 C
80 04-09-2014 06:35:00 13.9 C 96 % 13.27 C
81 04-09-2014 06:40:00 13.9 C 96 % 13.27 C
82 04-09-2014 06:45:00 14 C 96 % 13.37 C
83 04-09-2014 06:50:00 14.1 C 96 % 13.47 C
84 04-09-2014 06:55:00 14.1 C 96 % 13.47 C
85 04-09-2014 07:00:00 14.1 C 96 % 13.47 C
86 04-09-2014 07:05:00 14.1 C 96 % 13.47 C
87 04-09-2014 07:10:00 14.1 C 97 % 13.63 C
88 04-09-2014 07:15:00 14.2 C 97 % 13.73 C
89 04-09-2014 07:20:00 14.3 C 97 % 13.83 C
90 04-09-2014 07:25:00 14.3 C 97 % 13.83 C
91 04-09-2014 07:30:00 14.3 C 96 % 13.67 C
92 04-09-2014 07:35:00 14.3 C 96 % 13.67 C
93 04-09-2014 07:40:00 14.4 C 97 % 13.93 C
94 04-09-2014 07:45:00 14.5 C 97 % 14.03 C
95 04-09-2014 07:50:00 14.6 C 97 % 14.13 C
96 04-09-2014 07:55:00 14.6 C 97 % 14.13 C
97 04-09-2014 08:00:00 14.7 C 97 % 14.23 C
98 04-09-2014 08:05:00 14.8 C 97 % 14.33 C
99 04-09-2014 08:10:00 14.8 C 96 % 14.17 C
100 04-09-2014 08:15:00 14.8 C 96 % 14.17 C
Sensor: Nr:Datum:Temp:Feuchte:Taupunkt:
Aussen-T/F 101 04-09-2014 08:20:00 14.9 C 96 % 14.27 C
102 04-09-2014 08:25:00 14.9 C 96 % 14.27 C
103 04-09-2014 08:30:00 15 C 96 % 14.37 C
104 04-09-2014 08:35:00 15.1 C 96 % 14.47 C
105 04-09-2014 08:40:00 15.2 C 96 % 14.57 C
106 04-09-2014 08:45:00 15.3 C 96 % 14.67 C
107 04-09-2014 08:50:00 15.3 C 96 % 14.67 C
108 04-09-2014 08:55:00 15.4 C 95 % 14.6 C
109 04-09-2014 09:00:00 15.4 C 96 % 14.77 C
110 04-09-2014 09:05:00 15.6 C 95 % 14.8 C
111 04-09-2014 09:10:00 15.7 C 95 % 14.9 C
112 04-09-2014 09:15:00 15.7 C 95 % 14.9 C
113 04-09-2014 09:20:00 15.8 C 95 % 15 C
114 04-09-2014 09:25:00 15.9 C 94 % 14.94 C
115 04-09-2014 09:30:00 16.1 C 94 % 15.13 C
116 04-09-2014 09:35:00 16.2 C 93 % 15.07 C
117 04-09-2014 09:40:00 16.3 C 93 % 15.17 C
118 04-09-2014 09:45:00 16.4 C 92 % 15.1 C
119 04-09-2014 09:50:00 16.7 C 91 % 15.22 C
120 04-09-2014 09:55:00 16.9 C 91 % 15.42 C
121 04-09-2014 10:00:00 17.1 C 90 % 15.45 C
122 04-09-2014 10:05:00 17.3 C 89 % 15.47 C
123 04-09-2014 10:10:00 17.4 C 88 % 15.39 C
124 04-09-2014 10:15:00 17.7 C 87 % 15.51 C
125 04-09-2014 10:20:00 17.9 C 86 % 15.53 C
Sensor: Nr:Datum:Temp:Feuchte:Taupunkt:
Aussen-T/F 126 04-09-2014 10:25:00 18.1 C 86 % 15.72 C
127 04-09-2014 10:30:00 18.2 C 85 % 15.64 C
128 04-09-2014 10:35:00 18.4 C 83 % 15.46 C
129 04-09-2014 10:40:00 18.5 C 85 % 15.93 C
130 04-09-2014 10:45:00 18.6 C 83 % 15.66 C
131 04-09-2014 10:50:00 18.7 C 82 % 15.57 C
132 04-09-2014 10:55:00 18.9 C 83 % 15.95 C
133 04-09-2014 11:00:00 19.1 C 82 % 15.96 C
134 04-09-2014 11:05:00 19.2 C 81 % 15.86 C
135 04-09-2014 11:10:00 19.3 C 80 % 15.76 C
136 04-09-2014 11:15:00 19.3 C 79 % 15.57 C
137 04-09-2014 11:20:00 19.3 C 78 % 15.37 C
138 04-09-2014 11:25:00 19.3 C 79 % 15.57 C
139 04-09-2014 11:30:00 19.3 C 79 % 15.57 C
140 04-09-2014 11:35:00 19.3 C 78 % 15.37 C
141 04-09-2014 11:40:00 19.4 C 79 % 15.66 C
142 04-09-2014 11:45:00 19.7 C 78 % 15.76 C
143 04-09-2014 11:50:00 19.7 C 77 % 15.56 C
144 04-09-2014 11:55:00 19.7 C 77 % 15.56 C
145 04-09-2014 12:00:00 19.8 C 77 % 15.65 C
146 04-09-2014 12:05:00 19.7 C 78 % 15.76 C
147 04-09-2014 12:10:00 19.7 C 78 % 15.76 C
148 04-09-2014 12:15:00 19.8 C 78 % 15.85 C
149 04-09-2014 12:20:00 19.8 C 78 % 15.85 C
150 04-09-2014 12:25:00 19.9 C 78 % 15.95 C
Sensor: Nr:Datum:Temp:Feuchte:Taupunkt:
Aussen-T/F 151 04-09-2014 12:30:00 19.9 C 79 % 16.15 C
152 04-09-2014 12:35:00 19.9 C 76 % 15.54 C
153 04-09-2014 12:40:00 19.9 C 77 % 15.75 C
154 04-09-2014 12:45:00 19.8 C 78 % 15.85 C
155 04-09-2014 12:50:00 19.8 C 77 % 15.65 C
156 04-09-2014 12:55:00 19.8 C 77 % 15.65 C
157 04-09-2014 13:00:00 19.9 C 77 % 15.75 C
158 04-09-2014 13:05:00 19.8 C 76 % 15.45 C
159 04-09-2014 13:10:00 19.7 C 77 % 15.56 C
160 04-09-2014 13:15:00 19.6 C 77 % 15.46 C
161 04-09-2014 13:20:00 19.6 C 78 % 15.66 C
162 04-09-2014 13:25:00 19.6 C 77 % 15.46 C
163 04-09-2014 13:30:00 19.7 C 78 % 15.76 C
164 04-09-2014 13:35:00 19.7 C 78 % 15.76 C
165 04-09-2014 13:40:00 19.6 C 79 % 15.86 C
166 04-09-2014 13:45:00 19.6 C 79 % 15.86 C
167 04-09-2014 13:50:00 19.5 C 78 % 15.56 C
168 04-09-2014 13:55:00 19.5 C 80 % 15.96 C
169 04-09-2014 14:00:00 19.5 C 79 % 15.76 C
170 04-09-2014 14:05:00 19.6 C 79 % 15.86 C
171 04-09-2014 14:10:00 19.8 C 78 % 15.85 C
172 04-09-2014 14:15:00 19.8 C 78 % 15.85 C
173 04-09-2014 14:20:00 19.9 C 78 % 15.95 C
174 04-09-2014 14:25:00 20.1 C 78 % 16.14 C
175 04-09-2014 14:30:00 20.2 C 78 % 16.24 C
Sensor: Nr:Datum:Temp:Feuchte:Taupunkt:
Aussen-T/F 176 04-09-2014 14:35:00 20.2 C 77 % 16.04 C
177 04-09-2014 14:40:00 20.2 C 78 % 16.24 C
178 04-09-2014 14:45:00 20.3 C 78 % 16.34 C
179 04-09-2014 14:50:00 20.4 C 77 % 16.23 C
180 04-09-2014 14:55:00 20.3 C 77 % 16.14 C
181 04-09-2014 15:00:00 20.2 C 78 % 16.24 C
182 04-09-2014 15:05:00 20.2 C 78 % 16.24 C
183 04-09-2014 15:10:00 20.2 C 77 % 16.04 C
184 04-09-2014 15:15:00 20.2 C 78 % 16.24 C
185 04-09-2014 15:20:00 20.1 C 77 % 15.94 C
186 04-09-2014 15:25:00 20.1 C 78 % 16.14 C
187 04-09-2014 15:30:00 20.1 C 77 % 15.94 C
188 04-09-2014 15:35:00 20.1 C 79 % 16.34 C
189 04-09-2014 15:40:00 20.2 C 78 % 16.24 C
190 04-09-2014 15:45:00 20.1 C 77 % 15.94 C
191 04-09-2014 15:50:00 20.1 C 77 % 15.94 C
192 04-09-2014 15:55:00 20.1 C 76 % 15.74 C
193 04-09-2014 16:00:00 20.1 C 78 % 16.14 C
194 04-09-2014 16:05:00 19.9 C 79 % 16.15 C
195 04-09-2014 16:10:00 19.9 C 77 % 15.75 C
196 04-09-2014 16:15:00 19.9 C 78 % 15.95 C
197 04-09-2014 16:20:00 19.9 C 79 % 16.15 C
198 04-09-2014 16:25:00 19.8 C 78 % 15.85 C
199 04-09-2014 16:30:00 19.7 C 81 % 16.35 C
200 04-09-2014 16:35:00 19.4 C 81 % 16.06 C
Sensor: Nr:Datum:Temp:Feuchte:Taupunkt:
Aussen-T/F 201 04-09-2014 16:40:00 19.3 C 82 % 16.15 C
202 04-09-2014 16:45:00 19.3 C 80 % 15.76 C
203 04-09-2014 16:50:00 19.4 C 80 % 15.86 C
204 04-09-2014 16:55:00 19.6 C 81 % 16.25 C
205 04-09-2014 17:00:00 19.7 C 83 % 16.73 C
206 04-09-2014 17:05:00 19.4 C 85 % 16.81 C
207 04-09-2014 17:10:00 19.2 C 86 % 16.8 C
208 04-09-2014 17:15:00 19 C 87 % 16.79 C
209 04-09-2014 17:20:00 18.9 C 83 % 15.95 C
210 04-09-2014 17:25:00 19.2 C 84 % 16.43 C
211 04-09-2014 17:30:00 19.3 C 85 % 16.72 C
212 04-09-2014 17:35:00 19.2 C 86 % 16.8 C
213 04-09-2014 17:40:00 18.9 C 87 % 16.69 C
214 04-09-2014 17:45:00 18.7 C 88 % 16.67 C
215 04-09-2014 17:50:00 18.6 C 89 % 16.75 C
216 04-09-2014 17:55:00 18.5 C 89 % 16.65 C
217 04-09-2014 18:00:00 18.4 C 90 % 16.73 C
218 04-09-2014 18:05:00 18.3 C 90 % 16.63 C
219 04-09-2014 18:10:00 18.2 C 90 % 16.53 C
220 04-09-2014 18:15:00 18 C 91 % 16.51 C
221 04-09-2014 18:20:00 18 C 91 % 16.51 C
222 04-09-2014 18:25:00 17.9 C 91 % 16.41 C
223 04-09-2014 18:30:00 17.8 C 92 % 16.48 C
224 04-09-2014 18:35:00 17.8 C 92 % 16.48 C
225 04-09-2014 18:40:00 17.7 C 92 % 16.38 C
Sensor: Nr:Datum:Temp:Feuchte:Taupunkt:
Aussen-T/F 226 04-09-2014 18:45:00 17.7 C 92 % 16.38 C
227 04-09-2014 18:50:00 17.6 C 92 % 16.28 C
228 04-09-2014 18:55:00 17.5 C 92 % 16.19 C
229 04-09-2014 19:00:00 17.5 C 93 % 16.36 C
230 04-09-2014 19:05:00 17.4 C 93 % 16.26 C
231 04-09-2014 19:10:00 17.4 C 93 % 16.26 C
232 04-09-2014 19:15:00 17.4 C 93 % 16.26 C
233 04-09-2014 19:20:00 17.3 C 93 % 16.16 C
234 04-09-2014 19:25:00 17.3 C 93 % 16.16 C
235 04-09-2014 19:30:00 17.3 C 93 % 16.16 C
236 04-09-2014 19:35:00 17.3 C 93 % 16.16 C
237 04-09-2014 19:40:00 17.2 C 93 % 16.06 C
238 04-09-2014 19:45:00 17.2 C 93 % 16.06 C
239 04-09-2014 19:50:00 17.2 C 93 % 16.06 C
240 04-09-2014 19:55:00 17.2 C 93 % 16.06 C
241 04-09-2014 20:00:00 17.2 C 93 % 16.06 C
242 04-09-2014 20:05:00 17.2 C 93 % 16.06 C
243 04-09-2014 20:10:00 17.1 C 93 % 15.96 C
244 04-09-2014 20:15:00 17.1 C 94 % 16.13 C
245 04-09-2014 20:20:00 17.1 C 94 % 16.13 C
246 04-09-2014 20:25:00 17.1 C 94 % 16.13 C
247 04-09-2014 20:30:00 17 C 94 % 16.03 C
248 04-09-2014 20:35:00 17 C 94 % 16.03 C
249 04-09-2014 20:40:00 17 C 94 % 16.03 C
250 04-09-2014 20:45:00 16.9 C 94 % 15.93 C
Sensor: Nr:Datum:Temp:Feuchte:Taupunkt:
Aussen-T/F 251 04-09-2014 20:50:00 16.9 C 94 % 15.93 C
252 04-09-2014 20:55:00 16.9 C 94 % 15.93 C
253 04-09-2014 21:00:00 16.9 C 94 % 15.93 C
254 04-09-2014 21:05:00 16.9 C 94 % 15.93 C
255 04-09-2014 21:10:00 16.9 C 94 % 15.93 C
256 04-09-2014 21:15:00 16.9 C 94 % 15.93 C
257 04-09-2014 21:20:00 16.9 C 95 % 16.09 C
258 04-09-2014 21:25:00 16.9 C 95 % 16.09 C
259 04-09-2014 21:30:00 16.8 C 95 % 15.99 C
260 04-09-2014 21:35:00 16.8 C 95 % 15.99 C
261 04-09-2014 21:40:00 16.8 C 95 % 15.99 C
262 04-09-2014 21:45:00 16.8 C 95 % 15.99 C
263 04-09-2014 21:50:00 16.8 C 95 % 15.99 C
264 04-09-2014 21:55:00 16.8 C 95 % 15.99 C
265 04-09-2014 22:00:00 16.8 C 95 % 15.99 C
266 04-09-2014 22:05:00 16.8 C 95 % 15.99 C
267 04-09-2014 22:10:00 16.8 C 95 % 15.99 C
268 04-09-2014 22:15:00 16.8 C 95 % 15.99 C
269 04-09-2014 22:20:00 16.8 C 95 % 15.99 C
270 04-09-2014 22:25:00 16.8 C 95 % 15.99 C
271 04-09-2014 22:30:00 16.8 C 95 % 15.99 C
272 04-09-2014 22:35:00 16.8 C 95 % 15.99 C
273 04-09-2014 22:40:00 16.8 C 95 % 15.99 C
274 04-09-2014 22:45:00 16.8 C 95 % 15.99 C
275 04-09-2014 22:50:00 16.8 C 95 % 15.99 C
Sensor: Nr:Datum:Temp:Feuchte:Taupunkt:
Aussen-T/F 276 04-09-2014 22:55:00 16.8 C 95 % 15.99 C
277 04-09-2014 23:00:00 16.8 C 95 % 15.99 C
278 04-09-2014 23:05:00 16.8 C 95 % 15.99 C
279 04-09-2014 23:10:00 16.7 C 95 % 15.9 C
280 04-09-2014 23:15:00 16.7 C 95 % 15.9 C
281 04-09-2014 23:20:00 16.7 C 95 % 15.9 C
282 04-09-2014 23:25:00 16.6 C 95 % 15.8 C
283 04-09-2014 23:30:00 16.4 C 95 % 15.6 C
284 04-09-2014 23:35:00 16.4 C 95 % 15.6 C
285 04-09-2014 23:40:00 16.3 C 95 % 15.5 C
286 04-09-2014 23:45:00 16.3 C 95 % 15.5 C
287 04-09-2014 23:50:00 16.3 C 95 % 15.5 C
288 04-09-2014 23:55:00 16.3 C 95 % 15.5 C
289 05-09-2014 00:00:00 16.2 C 96 % 15.56 C
290 05-09-2014 00:05:00 16.2 C 96 % 15.56 C
291 05-09-2014 00:10:00 16.1 C 95 % 15.3 C
292 05-09-2014 00:15:00 16.1 C 96 % 15.46 C
293 05-09-2014 00:20:00 16.1 C 96 % 15.46 C
294 05-09-2014 00:25:00 16.1 C 96 % 15.46 C
295 05-09-2014 00:30:00 16.1 C 96 % 15.46 C
296 05-09-2014 00:35:00 16.1 C 96 % 15.46 C
297 05-09-2014 00:40:00 15.9 C 96 % 15.26 C
298 05-09-2014 00:45:00 15.8 C 96 % 15.16 C
299 05-09-2014 00:50:00 15.8 C 96 % 15.16 C
300 05-09-2014 00:55:00 15.7 C 96 % 15.06 C
Sensor: Nr:Datum:Temp:Feuchte:Taupunkt:
Aussen-T/F 301 05-09-2014 01:00:00 15.7 C 96 % 15.06 C
302 05-09-2014 01:05:00 15.6 C 96 % 14.96 C
303 05-09-2014 01:10:00 15.6 C 96 % 14.96 C
304 05-09-2014 01:15:00 15.6 C 96 % 14.96 C
305 05-09-2014 01:20:00 15.6 C 96 % 14.96 C
306 05-09-2014 01:25:00 15.7 C 97 % 15.23 C
307 05-09-2014 01:30:00 15.7 C 97 % 15.23 C
308 05-09-2014 01:35:00 15.7 C 97 % 15.23 C
309 05-09-2014 01:40:00 15.8 C 97 % 15.32 C
310 05-09-2014 01:45:00 15.8 C 97 % 15.32 C
311 05-09-2014 01:50:00 15.8 C 97 % 15.32 C
312 05-09-2014 01:55:00 15.8 C 97 % 15.32 C
313 05-09-2014 02:00:00 15.8 C 97 % 15.32 C
314 05-09-2014 02:05:00 15.8 C 97 % 15.32 C
315 05-09-2014 02:10:00 15.9 C 97 % 15.42 C
316 05-09-2014 02:15:00 15.9 C 97 % 15.42 C
317 05-09-2014 02:20:00 15.9 C 97 % 15.42 C
318 05-09-2014 02:25:00 15.9 C 97 % 15.42 C
319 05-09-2014 02:30:00 15.9 C 97 % 15.42 C
320 05-09-2014 02:35:00 15.9 C 97 % 15.42 C
321 05-09-2014 02:40:00 15.9 C 97 % 15.42 C
322 05-09-2014 02:45:00 15.9 C 97 % 15.42 C
323 05-09-2014 02:50:00 15.9 C 97 % 15.42 C
324 05-09-2014 02:55:00 15.9 C 97 % 15.42 C
325 05-09-2014 03:00:00 15.9 C 97 % 15.42 C
Sensor: Nr:Datum:Temp:Feuchte:Taupunkt:
Aussen-T/F 326 05-09-2014 03:05:00 15.9 C 97 % 15.42 C
327 05-09-2014 03:10:00 15.9 C 97 % 15.42 C
328 05-09-2014 03:15:00 15.9 C 97 % 15.42 C
329 05-09-2014 03:20:00 16 C 97 % 15.52 C
330 05-09-2014 03:25:00 16 C 97 % 15.52 C
331 05-09-2014 03:30:00 16 C 97 % 15.52 C
332 05-09-2014 03:35:00 16.1 C 97 % 15.62 C
333 05-09-2014 03:40:00 16.1 C 97 % 15.62 C
334 05-09-2014 03:45:00 16.1 C 97 % 15.62 C
335 05-09-2014 03:50:00 16.1 C 97 % 15.62 C
336 05-09-2014 03:55:00 16 C 97 % 15.52 C
337 05-09-2014 04:00:00 16 C 97 % 15.52 C
338 05-09-2014 04:05:00 16 C 97 % 15.52 C
339 05-09-2014 04:10:00 15.9 C 97 % 15.42 C
340 05-09-2014 04:15:00 15.9 C 97 % 15.42 C
341 05-09-2014 04:20:00 16 C 97 % 15.52 C
342 05-09-2014 04:25:00 16 C 97 % 15.52 C
343 05-09-2014 04:30:00 15.9 C 97 % 15.42 C
344 05-09-2014 04:35:00 15.9 C 97 % 15.42 C
345 05-09-2014 04:40:00 15.9 C 97 % 15.42 C
346 05-09-2014 04:45:00 15.9 C 97 % 15.42 C
347 05-09-2014 04:50:00 15.9 C 97 % 15.42 C
348 05-09-2014 04:55:00 15.9 C 97 % 15.42 C
349 05-09-2014 05:00:00 15.9 C 97 % 15.42 C
350 05-09-2014 05:05:00 15.9 C 97 % 15.42 C
Sensor: Nr:Datum:Temp:Feuchte:Taupunkt:
Aussen-T/F 351 05-09-2014 05:10:00 15.9 C 97 % 15.42 C
352 05-09-2014 05:15:00 15.9 C 97 % 15.42 C
353 05-09-2014 05:20:00 15.9 C 97 % 15.42 C
354 05-09-2014 05:25:00 15.9 C 97 % 15.42 C
355 05-09-2014 05:30:00 15.9 C 97 % 15.42 C
356 05-09-2014 05:35:00 15.9 C 97 % 15.42 C
357 05-09-2014 05:40:00 15.9 C 97 % 15.42 C
358 05-09-2014 05:45:00 15.9 C 97 % 15.42 C
359 05-09-2014 05:50:00 15.8 C 97 % 15.32 C
360 05-09-2014 05:55:00 15.8 C 97 % 15.32 C
361 05-09-2014 06:00:00 15.8 C 97 % 15.32 C
362 05-09-2014 06:05:00 15.7 C 97 % 15.23 C
363 05-09-2014 06:10:00 15.7 C 97 % 15.23 C
364 05-09-2014 06:15:00 15.7 C 97 % 15.23 C
365 05-09-2014 06:20:00 15.7 C 97 % 15.23 C
366 05-09-2014 06:25:00 15.7 C 97 % 15.23 C
367 05-09-2014 06:30:00 15.7 C 97 % 15.23 C
368 05-09-2014 06:35:00 15.7 C 97 % 15.23 C
369 05-09-2014 06:40:00 15.7 C 97 % 15.23 C
370 05-09-2014 06:45:00 15.7 C 97 % 15.23 C
371 05-09-2014 06:50:00 15.7 C 97 % 15.23 C
372 05-09-2014 06:55:00 15.7 C 97 % 15.23 C
373 05-09-2014 07:00:00 15.7 C 97 % 15.23 C
374 05-09-2014 07:05:00 15.6 C 97 % 15.13 C
375 05-09-2014 07:10:00 15.6 C 97 % 15.13 C
Sensor: Nr:Datum:Temp:Feuchte:Taupunkt:
Aussen-T/F 376 05-09-2014 07:15:00 15.6 C 97 % 15.13 C
377 05-09-2014 07:20:00 15.7 C 97 % 15.23 C
378 05-09-2014 07:25:00 15.7 C 97 % 15.23 C
379 05-09-2014 07:30:00 15.7 C 97 % 15.23 C
380 05-09-2014 07:35:00 15.7 C 97 % 15.23 C
381 05-09-2014 07:40:00 15.8 C 97 % 15.32 C
382 05-09-2014 07:45:00 15.8 C 97 % 15.32 C
383 05-09-2014 07:50:00 15.8 C 97 % 15.32 C
384 05-09-2014 07:55:00 15.8 C 97 % 15.32 C
385 05-09-2014 08:00:00 15.9 C 97 % 15.42 C
386 05-09-2014 08:05:00 15.9 C 98 % 15.58 C
387 05-09-2014 08:10:00 16 C 98 % 15.68 C
388 05-09-2014 08:15:00 16 C 98 % 15.68 C
389 05-09-2014 08:20:00 16.1 C 98 % 15.78 C
390 05-09-2014 08:25:00 16.1 C 98 % 15.78 C
391 05-09-2014 08:30:00 16.1 C 98 % 15.78 C
392 05-09-2014 08:35:00 16.2 C 97 % 15.72 C
393 05-09-2014 08:40:00 16.2 C 97 % 15.72 C
394 05-09-2014 08:45:00 16.3 C 97 % 15.82 C
395 05-09-2014 08:50:00 16.3 C 97 % 15.82 C
396 05-09-2014 08:55:00 16.3 C 97 % 15.82 C
397 05-09-2014 09:00:00 16.3 C 97 % 15.82 C
398 05-09-2014 09:05:00 16.4 C 97 % 15.92 C
399 05-09-2014 09:10:00 16.4 C 97 % 15.92 C
400 05-09-2014 09:15:00 16.5 C 97 % 16.02 C
Sensor: Nr:Datum:Temp:Feuchte:Taupunkt:
Aussen-T/F 401 05-09-2014 09:20:00 16.6 C 97 % 16.12 C
402 05-09-2014 09:25:00 16.7 C 97 % 16.22 C
403 05-09-2014 09:30:00 16.8 C 97 % 16.32 C
404 05-09-2014 09:35:00 16.8 C 96 % 16.16 C
405 05-09-2014 09:40:00 16.8 C 96 % 16.16 C
406 05-09-2014 09:45:00 16.9 C 96 % 16.26 C
407 05-09-2014 09:50:00 17 C 95 % 16.19 C
408 05-09-2014 09:55:00 17.2 C 96 % 16.56 C
409 05-09-2014 10:00:00 17.4 C 95 % 16.59 C
410 05-09-2014 10:05:00 17.5 C 94 % 16.52 C
411 05-09-2014 10:10:00 17.6 C 93 % 16.45 C
412 05-09-2014 10:15:00 17.7 C 93 % 16.55 C
413 05-09-2014 10:20:00 17.8 C 92 % 16.48 C
414 05-09-2014 10:25:00 17.9 C 92 % 16.58 C
415 05-09-2014 10:30:00 18.1 C 91 % 16.61 C
416 05-09-2014 10:35:00 18.2 C 91 % 16.71 C
417 05-09-2014 10:40:00 18.3 C 91 % 16.81 C
418 05-09-2014 10:45:00 18.4 C 91 % 16.9 C
419 05-09-2014 10:50:00 18.6 C 90 % 16.93 C
420 05-09-2014 10:55:00 18.8 C 89 % 16.95 C
421 05-09-2014 11:00:00 18.9 C 88 % 16.87 C
422 05-09-2014 11:05:00 19 C 89 % 17.15 C
423 05-09-2014 11:10:00 19.2 C 88 % 17.16 C
424 05-09-2014 11:15:00 19.4 C 89 % 17.54 C
425 05-09-2014 11:20:00 19.5 C 87 % 17.28 C
Sensor: Nr:Datum:Temp:Feuchte:Taupunkt:
Aussen-T/F 426 05-09-2014 11:25:00 19.6 C 88 % 17.56 C
427 05-09-2014 11:30:00 19.6 C 88 % 17.56 C
428 05-09-2014 11:35:00 19.6 C 87 % 17.38 C
429 05-09-2014 11:40:00 19.7 C 87 % 17.47 C
430 05-09-2014 11:45:00 19.7 C 88 % 17.66 C
431 05-09-2014 11:50:00 19.8 C 87 % 17.57 C
432 05-09-2014 11:55:00 19.8 C 85 % 17.21 C
433 05-09-2014 12:00:00 19.9 C 85 % 17.3 C
434 05-09-2014 12:05:00 20 C 87 % 17.77 C
435 05-09-2014 12:10:00 20.1 C 86 % 17.68 C
436 05-09-2014 12:15:00 20.1 C 84 % 17.31 C
437 05-09-2014 12:20:00 20.2 C 84 % 17.41 C
438 05-09-2014 12:25:00 20.2 C 85 % 17.6 C
439 05-09-2014 12:30:00 20.3 C 86 % 17.88 C
440 05-09-2014 12:35:00 20.4 C 85 % 17.79 C
441 05-09-2014 12:40:00 20.4 C 86 % 17.98 C
442 05-09-2014 12:45:00 20.3 C 87 % 18.06 C
443 05-09-2014 12:50:00 20.3 C 87 % 18.06 C
444 05-09-2014 12:55:00 20.6 C 87 % 18.36 C
445 05-09-2014 13:00:00 20.9 C 86 % 18.47 C
446 05-09-2014 13:05:00 21.3 C 86 % 18.86 C
447 05-09-2014 13:10:00 21.8 C 81 % 18.39 C
448 05-09-2014 13:15:00 22.2 C 82 % 18.98 C
449 05-09-2014 13:20:00 22.6 C 78 % 18.57 C
450 05-09-2014 13:25:00 22.8 C 81 % 19.37 C
Sensor: Nr:Datum:Temp:Feuchte:Taupunkt:
Aussen-T/F 451 05-09-2014 13:30:00 22.8 C 79 % 18.97 C
452 05-09-2014 13:35:00 22.9 C 79 % 19.06 C
453 05-09-2014 13:40:00 23 C 74 % 18.12 C
454 05-09-2014 13:45:00 23.2 C 81 % 19.76 C
455 05-09-2014 13:50:00 23.1 C 80 % 19.46 C
456 05-09-2014 13:55:00 22.9 C 80 % 19.26 C
457 05-09-2014 14:00:00 22.9 C 82 % 19.66 C
458 05-09-2014 14:05:00 22.9 C 82 % 19.66 C
459 05-09-2014 14:10:00 23 C 82 % 19.76 C
460 05-09-2014 14:15:00 22.9 C 81 % 19.46 C
461 05-09-2014 14:20:00 22.7 C 81 % 19.27 C
462 05-09-2014 14:25:00 22.5 C 83 % 19.47 C
463 05-09-2014 14:30:00 22.4 C 82 % 19.17 C
464 05-09-2014 14:35:00 22.5 C 80 % 18.88 C
465 05-09-2014 14:40:00 22.4 C 83 % 19.37 C
466 05-09-2014 14:45:00 22.4 C 83 % 19.37 C
467 05-09-2014 14:50:00 22.4 C 82 % 19.17 C
468 05-09-2014 14:55:00 22.4 C 81 % 18.98 C
469 05-09-2014 15:00:00 22.3 C 82 % 19.08 C
470 05-09-2014 15:05:00 22.2 C 82 % 18.98 C
471 05-09-2014 15:10:00 22.1 C 81 % 18.69 C
472 05-09-2014 15:15:00 22.2 C 81 % 18.78 C
473 05-09-2014 15:20:00 22.2 C 81 % 18.78 C
474 05-09-2014 15:25:00 22.3 C 80 % 18.68 C
475 05-09-2014 15:30:00 22.4 C 80 % 18.78 C
Sensor: Nr:Datum:Temp:Feuchte:Taupunkt:
Aussen-T/F 476 05-09-2014 15:35:00 22.3 C 81 % 18.88 C
477 05-09-2014 15:40:00 22.3 C 81 % 18.88 C
478 05-09-2014 15:45:00 22.3 C 79 % 18.48 C
479 05-09-2014 15:50:00 22.3 C 80 % 18.68 C
480 05-09-2014 15:55:00 22.2 C 81 % 18.78 C
481 05-09-2014 16:00:00 22.2 C 81 % 18.78 C
482 05-09-2014 16:05:00 22.2 C 81 % 18.78 C
483 05-09-2014 16:10:00 22.1 C 81 % 18.69 C
484 05-09-2014 16:15:00 22 C 81 % 18.59 C
485 05-09-2014 16:20:00 22.1 C 82 % 18.88 C
486 05-09-2014 16:25:00 22.1 C 82 % 18.88 C
487 05-09-2014 16:30:00 22.1 C 83 % 19.08 C
488 05-09-2014 16:35:00 22.1 C 83 % 19.08 C
489 05-09-2014 16:40:00 22.2 C 82 % 18.98 C
490 05-09-2014 16:45:00 22.3 C 83 % 19.27 C
491 05-09-2014 16:50:00 22.3 C 83 % 19.27 C
492 05-09-2014 16:55:00 22.1 C 83 % 19.08 C
493 05-09-2014 17:00:00 21.9 C 84 % 19.07 C
494 05-09-2014 17:05:00 21.7 C 84 % 18.88 C
495 05-09-2014 17:10:00 21.6 C 85 % 18.97 C
496 05-09-2014 17:15:00 21.7 C 85 % 19.07 C
497 05-09-2014 17:20:00 21.8 C 85 % 19.16 C
498 05-09-2014 17:25:00 21.8 C 84 % 18.97 C
499 05-09-2014 17:30:00 21.9 C 84 % 19.07 C
500 05-09-2014 17:35:00 21.9 C 84 % 19.07 C
Sensor: Nr:Datum:Temp:Feuchte:Taupunkt:
Aussen-T/F 501 05-09-2014 17:40:00 21.7 C 84 % 18.88 C
502 05-09-2014 17:45:00 21.5 C 85 % 18.87 C
503 05-09-2014 17:50:00 21.3 C 85 % 18.67 C
504 05-09-2014 17:55:00 21.1 C 86 % 18.67 C
505 05-09-2014 18:00:00 20.8 C 86 % 18.37 C
506 05-09-2014 18:05:00 20.7 C 87 % 18.46 C
507 05-09-2014 18:10:00 20.6 C 87 % 18.36 C
508 05-09-2014 18:15:00 20.4 C 87 % 18.16 C
509 05-09-2014 18:20:00 20.4 C 88 % 18.34 C
510 05-09-2014 18:25:00 20.5 C 88 % 18.44 C
511 05-09-2014 18:30:00 20.5 C 88 % 18.44 C
512 05-09-2014 18:35:00 20.4 C 87 % 18.16 C
513 05-09-2014 18:40:00 20.2 C 87 % 17.97 C
514 05-09-2014 18:45:00 20.1 C 88 % 18.05 C
515 05-09-2014 18:50:00 19.8 C 89 % 17.93 C
516 05-09-2014 18:55:00 19.6 C 89 % 17.74 C
517 05-09-2014 19:00:00 19.4 C 89 % 17.54 C
518 05-09-2014 19:05:00 19.3 C 90 % 17.62 C
519 05-09-2014 19:10:00 19.2 C 90 % 17.52 C
520 05-09-2014 19:15:00 19.1 C 90 % 17.42 C
521 05-09-2014 19:20:00 19.1 C 90 % 17.42 C
522 05-09-2014 19:25:00 19 C 90 % 17.32 C
523 05-09-2014 19:30:00 18.9 C 90 % 17.22 C
524 05-09-2014 19:35:00 18.8 C 91 % 17.3 C
525 05-09-2014 19:40:00 18.8 C 91 % 17.3 C
Sensor: Nr:Datum:Temp:Feuchte:Taupunkt:
Aussen-T/F 526 05-09-2014 19:45:00 18.8 C 90 % 17.12 C
527 05-09-2014 19:50:00 18.8 C 90 % 17.12 C
528 05-09-2014 19:55:00 18.7 C 90 % 17.03 C
529 05-09-2014 20:00:00 18.6 C 90 % 16.93 C
530 05-09-2014 20:05:00 18.4 C 90 % 16.73 C
531 05-09-2014 20:10:00 18.4 C 91 % 16.9 C
532 05-09-2014 20:15:00 18.3 C 91 % 16.81 C
533 05-09-2014 20:20:00 18.2 C 91 % 16.71 C
534 05-09-2014 20:25:00 18.2 C 91 % 16.71 C
535 05-09-2014 20:30:00 18.1 C 92 % 16.78 C
536 05-09-2014 20:35:00 18 C 92 % 16.68 C
537 05-09-2014 20:40:00 17.9 C 92 % 16.58 C
538 05-09-2014 20:45:00 17.8 C 92 % 16.48 C
539 05-09-2014 20:50:00 17.8 C 92 % 16.48 C
540 05-09-2014 20:55:00 17.8 C 92 % 16.48 C
541 05-09-2014 21:00:00 17.7 C 92 % 16.38 C
542 05-09-2014 21:05:00 17.6 C 92 % 16.28 C
543 05-09-2014 21:10:00 17.6 C 92 % 16.28 C
544 05-09-2014 21:15:00 17.5 C 92 % 16.19 C
545 05-09-2014 21:20:00 17.4 C 92 % 16.09 C
546 05-09-2014 21:25:00 17.3 C 92 % 15.99 C
547 05-09-2014 21:30:00 17.3 C 93 % 16.16 C
548 05-09-2014 21:35:00 17.2 C 93 % 16.06 C
549 05-09-2014 21:40:00 17.1 C 92 % 15.79 C
550 05-09-2014 21:45:00 17 C 93 % 15.86 C
Sensor: Nr:Datum:Temp:Feuchte:Taupunkt:
Aussen-T/F 551 05-09-2014 21:50:00 16.9 C 93 % 15.76 C
552 05-09-2014 21:55:00 16.9 C 93 % 15.76 C
553 05-09-2014 22:00:00 16.8 C 93 % 15.66 C
554 05-09-2014 22:05:00 16.8 C 93 % 15.66 C
555 05-09-2014 22:10:00 16.7 C 93 % 15.56 C
556 05-09-2014 22:15:00 16.7 C 93 % 15.56 C
557 05-09-2014 22:20:00 16.6 C 93 % 15.46 C
558 05-09-2014 22:25:00 16.6 C 94 % 15.63 C
559 05-09-2014 22:30:00 16.6 C 94 % 15.63 C
560 05-09-2014 22:35:00 16.5 C 94 % 15.53 C
561 05-09-2014 22:40:00 16.4 C 94 % 15.43 C
562 05-09-2014 22:45:00 16.4 C 94 % 15.43 C
563 05-09-2014 22:50:00 16.4 C 94 % 15.43 C
564 05-09-2014 22:55:00 16.3 C 94 % 15.33 C
565 05-09-2014 23:00:00 16.2 C 94 % 15.23 C
566 05-09-2014 23:05:00 16.2 C 94 % 15.23 C
567 05-09-2014 23:10:00 16.2 C 94 % 15.23 C
568 05-09-2014 23:15:00 16.1 C 94 % 15.13 C
569 05-09-2014 23:20:00 16.1 C 95 % 15.3 C
570 05-09-2014 23:25:00 16 C 95 % 15.2 C
571 05-09-2014 23:30:00 15.9 C 95 % 15.1 C
572 05-09-2014 23:35:00 15.9 C 95 % 15.1 C
573 05-09-2014 23:40:00 15.8 C 95 % 15 C
574 05-09-2014 23:45:00 15.8 C 95 % 15 C
575 05-09-2014 23:50:00 15.8 C 95 % 15 C
Sensor: Nr:Datum:Temp:Feuchte:Taupunkt:
Aussen-T/F 576 05-09-2014 23:55:00 15.7 C 95 % 14.9 C

Legende:
   Min
   Max


Maximal/Minimal-Werte vom 04.09.2014 - 05.09.2014

Sensor Min Max Avg
Temp
(Aussen-T/F)
13.3 °C
04-09-2014  03:40:00
23.2 °C
05-09-2014  13:45:00
17.45 °C
Feuchte
(Aussen-T/F)
74 %
05-09-2014  13:40:00
98 %
05-09-2014  08:05:00
90.54 %
Taupunkt
(Aussen-T/F)
12.45 C
04-09-2014  03:20:00
19.76 C
05-09-2014  13:45:00
15.8 C

Die Daten stammen von einer Davis Vantage Pro 2 Wetter-Station und werden unter Linux mit der Software wview2wettercgi und aufbereitet. Alle Angaben erfolgen ohne Gewähr für ihre Vollständigkeit oder Richtigkeit.
Kontakt: Rainer Krienke krienke@uni-koblenz.de . Meine Webseiten an der Uni Koblenz oder privat.
Version: $Revision: 0.78 $